createdAt,value
2018-08-10T00:00:59.719Z,96.55
2018-08-10T00:03:28.987Z,99.75
2018-08-10T00:05:58.215Z,99.10
2018-08-10T00:08:27.450Z,98.55
2018-08-10T00:10:57.915Z,97.58
2018-08-10T00:13:27.174Z,99.34
2018-08-10T00:15:56.439Z,98.33
2018-08-10T00:18:25.647Z,97.81
2018-08-10T00:20:54.887Z,96.18
2018-08-10T00:23:24.150Z,96.20
2018-08-10T00:25:53.675Z,97.66
2018-08-10T00:28:22.963Z,98.01
2018-08-10T00:31:07.324Z,98.67
2018-08-10T00:33:36.593Z,97.17
2018-08-10T00:36:05.876Z,99.24
2018-08-10T00:38:35.088Z,99.93
2018-08-10T00:41:05.624Z,98.50
2018-08-10T00:43:34.847Z,97.14
2018-08-10T00:46:04.092Z,98.25
2018-08-10T00:48:33.344Z,97.30
2018-08-10T00:51:02.576Z,96.72
2018-08-10T00:53:31.791Z,96.21
2018-08-10T00:56:01.037Z,96.78
2018-08-10T00:58:30.251Z,96.56
2018-08-10T01:00:59.506Z,99.73
2018-08-10T01:03:28.819Z,96.05
2018-08-10T01:05:58.088Z,98.17
2018-08-10T01:08:27.358Z,96.76
2018-08-10T01:10:56.638Z,96.50
2018-08-10T01:13:25.982Z,97.79
2018-08-10T01:15:55.247Z,99.61
2018-08-10T01:18:24.526Z,99.33
2018-08-10T01:20:53.822Z,97.46
2018-08-10T01:23:23.120Z,97.74
2018-08-10T01:25:52.403Z,98.35
2018-08-10T01:28:21.760Z,98.56
2018-08-10T01:30:50.991Z,98.16
2018-08-10T01:33:20.289Z,98.71
2018-08-10T01:35:49.589Z,97.74
2018-08-10T01:38:18.848Z,97.87
2018-08-10T01:40:48.128Z,97.98
2018-08-10T01:43:17.439Z,97.58
2018-08-10T01:45:46.723Z,99.29
2018-08-10T01:48:16.065Z,99.11
2018-08-10T01:50:45.424Z,99.22
2018-08-10T01:53:14.714Z,98.86
2018-08-10T01:55:44.005Z,97.58
2018-08-10T01:58:13.266Z,99.29
2018-08-10T02:00:42.566Z,99.67
2018-08-10T02:03:11.832Z,98.59
2018-08-10T02:05:41.103Z,99.93
2018-08-10T02:08:10.458Z,98.87
2018-08-10T02:10:39.754Z,100.00
2018-08-10T02:13:09.053Z,97.13
2018-08-10T02:15:38.414Z,97.06
2018-08-10T02:18:07.687Z,97.38
2018-08-10T02:20:36.951Z,98.53
2018-08-10T02:23:06.329Z,100.00
2018-08-10T02:25:35.602Z,99.07
2018-08-10T02:28:04.994Z,99.15
2018-08-10T02:30:34.281Z,98.23
2018-08-10T02:33:03.829Z,98.41
2018-08-10T02:35:33.140Z,98.07
2018-08-10T02:38:02.418Z,97.54
2018-08-10T02:40:32.111Z,98.43
2018-08-10T02:43:01.404Z,99.89
2018-08-10T02:45:30.718Z,99.49
2018-08-10T02:47:59.992Z,99.95
2018-08-10T02:50:29.260Z,99.00
2018-08-10T02:52:58.515Z,99.42
2018-08-10T02:55:27.786Z,100.00
2018-08-10T02:57:57.017Z,100.00
2018-08-10T03:00:26.279Z,100.00
2018-08-10T03:02:55.521Z,100.00
2018-08-10T03:05:24.808Z,99.29
2018-08-10T03:07:54.050Z,98.96
2018-08-10T03:10:23.310Z,98.19
2018-08-10T03:12:52.558Z,98.75
2018-08-10T03:15:22.015Z,98.58
2018-08-10T03:17:51.325Z,99.52
2018-08-10T03:20:20.565Z,98.97
2018-08-10T03:22:49.807Z,98.95
2018-08-10T03:25:19.076Z,99.71
2018-08-10T03:27:48.324Z,100.00
2018-08-10T03:30:17.616Z,100.00
2018-08-10T03:32:46.876Z,100.00
2018-08-10T03:35:16.103Z,100.00
2018-08-10T03:37:45.375Z,100.00
2018-08-10T03:40:15.865Z,99.70
2018-08-10T03:42:45.111Z,99.43
2018-08-10T03:45:14.339Z,99.49
2018-08-10T03:47:43.566Z,100.00
2018-08-10T03:50:14.051Z,100.00
2018-08-10T03:52:44.816Z,100.00
2018-08-10T03:55:14.116Z,100.00
2018-08-10T03:57:43.359Z,100.00
2018-08-10T04:00:14.049Z,100.00
2018-08-10T04:02:43.637Z,100.00
2018-08-10T04:05:13.419Z,100.00
2018-08-10T04:07:42.959Z,100.00
2018-08-10T04:10:12.194Z,100.00
2018-08-10T04:13:12.182Z,99.90
2018-08-10T04:15:41.654Z,98.54
2018-08-10T04:18:10.930Z,100.00
2018-08-10T04:20:40.159Z,100.00
2018-08-10T04:23:09.414Z,99.67
2018-08-10T04:25:38.655Z,100.00
2018-08-10T04:28:07.906Z,100.00
2018-08-10T04:30:37.211Z,100.00
2018-08-10T04:33:06.872Z,100.00
2018-08-10T04:35:36.387Z,100.00
2018-08-10T04:38:05.707Z,100.00
2018-08-10T04:40:34.948Z,100.00
2018-08-10T04:43:04.228Z,100.00
2018-08-10T04:45:33.472Z,100.00
2018-08-10T04:48:03.839Z,100.00
2018-08-10T04:50:33.639Z,99.60
2018-08-10T04:53:02.887Z,98.40
2018-08-10T04:55:32.232Z,98.06
2018-08-10T04:58:01.622Z,98.24
2018-08-10T05:00:30.879Z,98.04
2018-08-10T05:03:00.132Z,98.38
2018-08-10T05:05:29.426Z,99.78
2018-08-10T05:07:58.745Z,99.18
2018-08-10T05:10:28.183Z,99.42
2018-08-10T05:12:57.491Z,99.17
2018-08-10T05:15:26.740Z,97.67
2018-08-10T05:17:56.030Z,98.13
2018-08-10T05:20:25.245Z,98.59
2018-08-10T05:22:54.520Z,99.16
2018-08-10T05:25:23.746Z,100.00
2018-08-10T05:28:37.504Z,100.00
2018-08-10T05:31:06.823Z,100.00
2018-08-10T05:33:36.206Z,100.00
2018-08-10T05:36:05.448Z,100.00
2018-08-10T05:38:34.812Z,100.00
2018-08-10T05:41:04.134Z,100.00
2018-08-10T05:43:33.394Z,100.00
2018-08-10T05:46:02.673Z,100.00
2018-08-10T05:48:37.070Z,100.00
2018-08-10T05:51:07.085Z,100.00
2018-08-10T05:53:36.391Z,100.00
2018-08-10T05:56:05.693Z,100.00
2018-08-10T05:58:34.957Z,100.00
2018-08-10T06:01:04.424Z,100.00
2018-08-10T06:03:33.706Z,100.00
2018-08-10T06:06:02.956Z,100.00
2018-08-10T06:08:32.201Z,100.00
2018-08-10T06:11:01.501Z,100.00
2018-08-10T06:13:31.029Z,100.00
2018-08-10T06:16:00.997Z,100.00
2018-08-10T06:18:30.261Z,100.00
2018-08-10T06:20:59.596Z,100.00
2018-08-10T06:23:29.059Z,100.00
2018-08-10T06:25:58.347Z,100.00
2018-08-10T06:28:27.680Z,100.00
2018-08-10T06:30:56.940Z,100.00
2018-08-10T06:33:26.211Z,100.00
2018-08-10T06:35:55.461Z,100.00
2018-08-10T06:38:24.749Z,100.00
2018-08-10T06:40:54.087Z,100.00
2018-08-10T06:43:23.348Z,100.00
2018-08-10T06:45:52.625Z,100.00
2018-08-10T06:48:21.893Z,100.00
2018-08-10T06:50:51.203Z,100.00
2018-08-10T06:53:20.653Z,100.00
2018-08-10T06:55:50.079Z,100.00
2018-08-10T06:58:19.302Z,100.00
2018-08-10T07:00:48.610Z,100.00
2018-08-10T07:03:17.929Z,100.00
2018-08-10T07:05:47.243Z,100.00
2018-08-10T07:08:16.522Z,100.00
2018-08-10T07:10:45.923Z,100.00
2018-08-10T07:13:15.340Z,100.00
2018-08-10T07:15:44.544Z,100.00
2018-08-10T07:18:13.815Z,100.00
2018-08-10T07:20:43.072Z,100.00
2018-08-10T07:23:12.432Z,100.00
2018-08-10T07:25:41.738Z,100.00
2018-08-10T07:28:11.112Z,100.00
2018-08-10T07:30:40.387Z,100.00
2018-08-10T07:33:09.687Z,100.00
2018-08-10T07:35:38.978Z,100.00
2018-08-10T07:38:08.269Z,100.00
2018-08-10T07:40:38.780Z,100.00
2018-08-10T07:43:08.055Z,100.00
2018-08-10T07:45:37.394Z,100.00
2018-08-10T07:48:06.695Z,100.00
2018-08-10T07:50:36.006Z,100.00
2018-08-10T07:53:05.352Z,100.00
2018-08-10T07:55:34.673Z,100.00
2018-08-10T07:58:03.955Z,99.17
2018-08-10T08:00:33.254Z,98.66
2018-08-10T08:03:02.552Z,99.67
2018-08-10T08:05:31.767Z,97.75
2018-08-10T08:08:00.997Z,98.08
2018-08-10T08:10:30.398Z,97.58
2018-08-10T08:12:59.705Z,98.14
2018-08-10T08:15:28.959Z,97.27
2018-08-10T08:17:58.237Z,95.82
2018-08-10T08:20:27.516Z,96.36
2018-08-10T08:23:05.367Z,95.54
2018-08-10T08:25:34.655Z,93.78
2018-08-10T08:28:03.933Z,95.23
2018-08-10T08:30:33.199Z,93.78
2018-08-10T08:33:02.478Z,94.83
2018-08-10T08:35:31.794Z,93.47
2018-08-10T08:40:20.508Z,93.73
2018-08-10T08:42:51.024Z,94.00
2018-08-10T08:46:23.032Z,93.87
2018-08-10T08:48:52.961Z,94.65
2018-08-10T08:51:24.477Z,93.18
2018-08-10T08:54:11.435Z,93.01
2018-08-10T08:56:44.209Z,93.45
2018-08-10T08:59:13.499Z,94.69
2018-08-10T09:01:42.858Z,94.77
2018-08-10T09:04:29.447Z,94.73
2018-08-10T09:06:58.725Z,95.05
2018-08-10T09:09:36.665Z,93.39
2018-08-10T09:12:06.146Z,94.25
2018-08-10T09:14:45.896Z,92.96
2018-08-10T09:17:15.255Z,92.39
2018-08-10T09:19:44.565Z,94.84
2018-08-10T09:22:14.191Z,93.75
2018-08-10T09:24:43.724Z,94.16
2018-08-10T09:27:13.103Z,94.24
2018-08-10T09:29:42.374Z,92.13
2018-08-10T09:32:11.655Z,93.22
2018-08-10T09:34:41.355Z,93.11
2018-08-10T09:37:11.147Z,92.33
2018-08-10T09:39:40.588Z,90.79
2018-08-10T09:42:10.001Z,91.64
2018-08-10T09:44:39.324Z,92.21
2018-08-10T09:47:10.067Z,93.88
2018-08-10T09:49:45.532Z,93.25
2018-08-10T09:52:14.895Z,94.27
2018-08-10T09:55:24.707Z,94.13
2018-08-10T09:57:55.299Z,93.07
2018-08-10T10:00:29.790Z,92.63
2018-08-10T10:03:04.307Z,92.77
2018-08-10T10:05:33.620Z,91.33
2018-08-10T10:08:02.925Z,94.72
2018-08-10T10:10:32.175Z,94.42
2018-08-10T10:13:01.448Z,94.44
2018-08-10T10:15:30.834Z,92.73
2018-08-10T10:18:00.212Z,94.82
2018-08-10T10:20:29.567Z,95.41
2018-08-10T10:22:58.895Z,93.76
2018-08-10T10:25:28.228Z,90.60
2018-08-10T10:27:57.584Z,93.17
2018-08-10T10:30:26.866Z,92.84
2018-08-10T10:32:56.164Z,90.48
2018-08-10T10:35:25.432Z,87.41
2018-08-10T10:37:54.762Z,86.56
2018-08-10T10:40:24.065Z,87.04
2018-08-10T10:42:53.425Z,86.74
2018-08-10T10:45:22.727Z,85.49
2018-08-10T10:47:53.312Z,84.27
2018-08-10T10:50:22.571Z,83.84
2018-08-10T10:52:51.897Z,82.84
2018-08-10T10:55:21.226Z,85.99
2018-08-10T10:57:50.459Z,83.32
2018-08-10T11:00:20.971Z,81.35
2018-08-10T11:02:50.502Z,79.55
2018-08-10T11:05:20.077Z,81.16
2018-08-10T11:07:49.397Z,75.01
2018-08-10T11:10:19.947Z,72.17
2018-08-10T11:12:49.228Z,70.16
2018-08-10T11:15:18.541Z,68.76
2018-08-10T11:17:47.861Z,67.75
2018-08-10T11:20:17.178Z,68.65
2018-08-10T11:22:46.482Z,75.27
2018-08-10T11:25:16.050Z,81.33
2018-08-10T11:27:45.714Z,85.20
2018-08-10T11:30:15.047Z,88.18
2018-08-10T11:32:44.283Z,88.83
2018-08-10T11:35:13.595Z,91.08
2018-08-10T11:37:43.052Z,87.84
2018-08-10T11:40:14.092Z,86.10
2018-08-10T11:42:43.882Z,88.15
2018-08-10T11:45:15.219Z,88.09
2018-08-10T11:47:44.585Z,87.45
2018-08-10T11:50:13.864Z,82.04
2018-08-10T11:52:43.101Z,82.36
2018-08-10T11:55:14.183Z,86.19
2018-08-10T11:57:44.080Z,85.25
2018-08-10T12:00:14.777Z,83.67
2018-08-10T12:02:44.330Z,82.46
2018-08-10T12:05:14.286Z,83.42
2018-08-10T12:07:43.563Z,84.11
2018-08-10T12:10:12.833Z,84.21
2018-08-10T12:12:42.181Z,84.08
2018-08-10T12:15:13.096Z,83.88
2018-08-10T12:17:42.443Z,83.75
2018-08-10T12:20:11.783Z,83.71
2018-08-10T12:22:41.807Z,84.34
2018-08-10T12:25:11.122Z,84.30
2018-08-10T12:27:40.390Z,85.58
2018-08-10T12:30:12.019Z,84.54
2018-08-10T12:32:41.248Z,85.89
2018-08-10T12:35:10.780Z,83.58
2018-08-10T12:37:40.047Z,87.66
2018-08-10T12:40:09.641Z,84.40
2018-08-10T12:42:39.458Z,86.67
2018-08-10T12:45:08.803Z,89.71
2018-08-10T12:47:38.482Z,92.71
2018-08-10T12:50:08.553Z,92.82
2018-08-10T12:52:37.778Z,93.38
2018-08-10T12:55:07.035Z,84.01
2018-08-10T12:57:36.334Z,83.17
2018-08-10T13:00:09.290Z,83.22
2018-08-10T13:02:38.614Z,81.46
2018-08-10T13:05:08.576Z,82.67
2018-08-10T13:07:37.955Z,82.71
2018-08-10T13:10:10.396Z,83.55
2018-08-10T13:12:39.739Z,84.45
2018-08-10T13:15:11.277Z,85.28
2018-08-10T13:17:40.671Z,85.36
2018-08-10T13:20:12.205Z,85.30
2018-08-10T13:22:41.468Z,85.35
2018-08-10T13:25:11.535Z,84.84
2018-08-10T13:27:40.878Z,83.65
2018-08-10T13:30:11.714Z,88.23
2018-08-10T13:32:41.024Z,86.52
2018-08-10T13:35:10.327Z,92.40
2018-08-10T13:37:39.576Z,91.97
2018-08-10T13:40:08.879Z,90.20
2018-08-10T13:42:38.133Z,90.13
2018-08-10T13:45:10.131Z,85.63
2018-08-10T13:47:39.427Z,80.25
2018-08-10T13:50:11.378Z,79.95
2018-08-10T13:52:41.198Z,75.97
2018-08-10T13:55:13.974Z,77.30
2018-08-10T13:57:43.262Z,76.92
2018-08-10T14:00:27.249Z,74.80
2018-08-10T14:02:56.624Z,74.48
2018-08-10T14:05:25.948Z,74.69
2018-08-10T14:07:55.207Z,75.08
2018-08-10T14:10:24.596Z,75.14
2018-08-10T14:12:53.855Z,75.73
2018-08-10T14:15:23.152Z,77.41
2018-08-10T14:17:52.537Z,79.38
2018-08-10T14:20:21.843Z,80.75
2018-08-10T14:22:51.138Z,79.41
2018-08-10T14:25:20.468Z,78.72
2018-08-10T14:27:49.710Z,78.66
2018-08-10T14:30:19.002Z,77.41
2018-08-10T14:32:48.299Z,73.93
2018-08-10T14:35:18.260Z,76.01
2018-08-10T14:37:47.551Z,79.46
2018-08-10T14:40:16.835Z,77.79
2018-08-10T14:42:46.124Z,76.49
2018-08-10T14:45:16.401Z,76.58
2018-08-10T14:47:45.735Z,78.23
2018-08-10T14:50:15.610Z,78.74
2018-08-10T14:52:44.872Z,79.54
2018-08-10T14:55:15.607Z,80.88
2018-08-10T14:57:44.923Z,80.71
2018-08-10T15:00:19.473Z,78.56
2018-08-10T15:02:48.950Z,76.60
2018-08-10T15:05:18.499Z,75.24
2018-08-10T15:07:47.813Z,73.53
2018-08-10T15:10:17.734Z,72.61
2018-08-10T15:12:47.551Z,74.09
2018-08-10T15:15:18.003Z,74.39
2018-08-10T15:17:48.325Z,73.78
2018-08-10T15:20:20.507Z,75.06
2018-08-10T15:22:49.900Z,75.03
2018-08-10T15:25:19.153Z,76.66
2018-08-10T15:27:48.498Z,72.67
2018-08-10T15:30:18.856Z,72.82
2018-08-10T15:32:48.211Z,73.40
2018-08-10T15:35:17.951Z,72.23
2018-08-10T15:37:47.277Z,73.24
2018-08-10T15:40:19.206Z,72.29
2018-08-10T15:42:48.545Z,74.07
2018-08-10T15:45:18.776Z,73.68
2018-08-10T15:47:48.227Z,71.17
2018-08-10T15:50:18.476Z,74.28
2018-08-10T15:52:47.792Z,75.53
2018-08-10T15:55:17.083Z,72.58
2018-08-10T15:57:46.806Z,72.65
2018-08-10T16:00:20.035Z,74.57
2018-08-10T16:02:49.503Z,73.08
2018-08-10T16:05:18.756Z,72.81
2018-08-10T16:07:48.088Z,73.60
2018-08-10T16:10:17.441Z,75.09
2018-08-10T16:12:46.759Z,76.36
2018-08-10T16:15:18.318Z,75.44
2018-08-10T16:17:47.784Z,76.12
2018-08-10T16:20:22.406Z,77.03
2018-08-10T16:22:51.932Z,76.65
2018-08-10T16:25:21.230Z,76.35
2018-08-10T16:27:50.590Z,77.43
2018-08-10T16:30:19.907Z,77.75
2018-08-10T16:32:49.250Z,77.21
2018-08-10T16:35:18.524Z,77.31
2018-08-10T16:37:48.170Z,78.88
2018-08-10T16:40:18.503Z,81.41
2018-08-10T16:42:47.850Z,79.99
2018-08-10T16:45:17.192Z,78.52
2018-08-10T16:47:46.773Z,78.59
2018-08-10T16:50:17.678Z,78.35
2018-08-10T16:52:47.445Z,78.48
2018-08-10T16:55:18.147Z,78.44
2018-08-10T16:57:47.976Z,79.00
2018-08-10T17:00:19.113Z,80.07
2018-08-10T17:02:48.756Z,76.61
2018-08-10T17:05:18.165Z,76.12
2018-08-10T17:07:47.519Z,76.22
2018-08-10T17:10:16.831Z,76.14
2018-08-10T17:12:46.519Z,76.73
2018-08-10T17:15:17.835Z,79.51
2018-08-10T17:17:47.824Z,79.60
2018-08-10T17:20:17.666Z,78.66
2018-08-10T17:22:47.092Z,80.07
2018-08-10T17:25:21.088Z,79.16
2018-08-10T17:27:50.418Z,80.73
2018-08-10T17:30:20.478Z,81.21
2018-08-10T17:32:49.731Z,80.49
2018-08-10T17:35:19.011Z,80.28
2018-08-10T17:37:48.411Z,81.52
2018-08-10T17:40:17.674Z,80.64
2018-08-10T17:42:46.954Z,80.82
2018-08-10T17:45:17.363Z,81.40
2018-08-10T17:47:46.820Z,81.39
2018-08-10T17:50:18.819Z,80.79
2018-08-10T17:52:49.520Z,82.96
2018-08-10T17:55:19.234Z,82.88
2018-08-10T17:57:48.694Z,82.08
2018-08-10T18:00:20.269Z,82.89
2018-08-10T18:02:50.201Z,84.10
2018-08-10T18:05:19.623Z,83.55
2018-08-10T18:07:48.908Z,84.61
2018-08-10T18:10:19.319Z,84.74
2018-08-10T18:12:48.630Z,86.87
2018-08-10T18:15:19.615Z,87.52
2018-08-10T18:17:49.189Z,86.40
2018-08-10T18:20:20.131Z,87.95
2018-08-10T18:22:50.775Z,87.87
2018-08-10T18:25:21.894Z,87.59
2018-08-10T18:27:51.150Z,88.38
2018-08-10T18:30:23.134Z,88.95
2018-08-10T18:32:52.466Z,89.67
2018-08-10T18:35:21.817Z,89.78
2018-08-10T18:37:51.695Z,88.21
2018-08-10T18:40:21.968Z,88.62
2018-08-10T18:42:51.524Z,90.89
2018-08-10T18:45:21.911Z,92.52
2018-08-10T18:47:51.152Z,92.46
2018-08-10T18:50:20.893Z,93.42
2018-08-10T18:52:50.126Z,94.17
2018-08-10T18:55:21.423Z,92.71
2018-08-10T18:57:51.260Z,92.46
2018-08-10T19:00:22.752Z,94.42
2018-08-10T19:02:52.021Z,94.89
2018-08-10T19:05:21.323Z,95.98
2018-08-10T19:07:50.776Z,96.61
2018-08-10T19:10:22.371Z,97.13
2018-08-10T19:12:51.732Z,98.87
2018-08-10T19:15:20.975Z,99.52
2018-08-10T19:17:50.327Z,98.87
2018-08-10T19:20:20.829Z,98.19
2018-08-10T19:22:50.115Z,99.57
2018-08-10T19:25:19.487Z,100.00
2018-08-10T19:27:48.826Z,100.00
2018-08-10T19:30:20.565Z,100.00
2018-08-10T19:32:49.962Z,100.00
2018-08-10T19:35:19.569Z,100.00
2018-08-10T19:37:48.963Z,100.00
2018-08-10T19:40:19.229Z,100.00
2018-08-10T19:42:48.530Z,100.00
2018-08-10T19:45:18.389Z,100.00
2018-08-10T19:47:47.678Z,100.00
2018-08-10T19:50:18.065Z,100.00
2018-08-10T19:52:47.320Z,100.00
2018-08-10T19:55:16.622Z,100.00
2018-08-10T19:57:46.410Z,100.00
2018-08-10T20:00:22.379Z,100.00
2018-08-10T20:02:51.953Z,100.00
2018-08-10T20:05:21.213Z,100.00
2018-08-10T20:07:50.452Z,100.00
2018-08-10T20:10:19.738Z,100.00
2018-08-10T20:17:46.665Z,100.00
2018-08-10T20:20:17.944Z,100.00
2018-08-10T20:22:47.647Z,100.00
2018-08-10T20:25:17.235Z,100.00
2018-08-10T20:28:01.187Z,100.00
2018-08-10T20:30:31.551Z,100.00
2018-08-10T20:33:00.938Z,100.00
2018-08-10T20:35:30.203Z,100.00
2018-08-10T20:37:59.597Z,100.00
2018-08-10T20:40:29.058Z,100.00
2018-08-10T20:42:58.428Z,100.00
2018-08-10T20:45:27.753Z,100.00
2018-08-10T20:47:57.006Z,100.00
2018-08-10T20:50:26.389Z,100.00
2018-08-10T20:52:55.597Z,100.00
2018-08-10T20:55:25.008Z,100.00
2018-08-10T20:57:54.276Z,100.00
2018-08-10T21:00:23.552Z,100.00
2018-08-10T21:02:52.804Z,100.00
2018-08-10T21:05:22.072Z,100.00
2018-08-10T21:07:51.833Z,100.00
2018-08-10T21:10:21.158Z,100.00
2018-08-10T21:12:50.407Z,100.00
2018-08-10T21:15:19.681Z,100.00
2018-08-10T21:17:48.909Z,100.00
2018-08-10T21:20:18.691Z,100.00
2018-08-10T21:22:48.043Z,100.00
2018-08-10T21:25:17.283Z,100.00
2018-08-10T21:27:46.560Z,100.00
2018-08-10T21:30:18.171Z,100.00
2018-08-10T21:32:47.936Z,100.00
2018-08-10T21:35:17.175Z,100.00
2018-08-10T21:37:46.487Z,100.00
2018-08-10T21:40:15.707Z,100.00
2018-08-10T21:47:42.829Z,100.00
2018-08-10T21:50:13.519Z,100.00
2018-08-10T21:52:44.030Z,100.00
2018-08-10T21:55:13.449Z,100.00
2018-08-10T21:57:42.830Z,100.00
2018-08-10T22:00:21.702Z,100.00
2018-08-10T22:02:50.927Z,100.00
2018-08-10T22:05:20.179Z,100.00
2018-08-10T22:07:49.428Z,100.00
2018-08-10T22:10:18.699Z,100.00
2018-08-10T22:12:48.292Z,100.00
2018-08-10T22:15:23.180Z,100.00
2018-08-10T22:17:57.667Z,100.00
2018-08-10T22:20:26.942Z,100.00
2018-08-10T22:22:56.238Z,100.00
2018-08-10T22:25:26.192Z,100.00
2018-08-10T22:27:55.421Z,100.00
2018-08-10T22:30:24.671Z,100.00
2018-08-10T22:32:53.912Z,100.00
2018-08-10T22:35:23.164Z,100.00
2018-08-10T22:37:52.420Z,100.00
2018-08-10T22:40:21.709Z,100.00
2018-08-10T22:42:50.983Z,100.00
2018-08-10T22:45:20.218Z,100.00
2018-08-10T22:47:49.515Z,100.00
2018-08-10T22:50:18.773Z,100.00
2018-08-10T22:52:48.031Z,100.00
2018-08-10T22:55:17.330Z,100.00
2018-08-10T22:57:46.563Z,100.00
2018-08-10T23:00:15.803Z,100.00
2018-08-10T23:02:45.063Z,100.00
2018-08-10T23:05:14.301Z,100.00
2018-08-10T23:07:43.635Z,100.00
2018-08-10T23:10:14.158Z,100.00
2018-08-10T23:12:43.889Z,100.00
2018-08-10T23:15:13.306Z,100.00
2018-08-10T23:17:42.718Z,100.00
2018-08-10T23:20:13.870Z,100.00
2018-08-10T23:22:43.138Z,100.00
2018-08-10T23:25:13.978Z,100.00
2018-08-10T23:27:44.347Z,100.00
2018-08-10T23:30:15.651Z,100.00
2018-08-10T23:32:45.615Z,100.00
2018-08-10T23:35:14.969Z,100.00
2018-08-10T23:37:44.218Z,100.00
2018-08-10T23:40:15.391Z,100.00
2018-08-10T23:42:45.694Z,100.00
2018-08-10T23:45:15.574Z,100.00
2018-08-10T23:47:45.149Z,100.00
2018-08-10T23:50:15.666Z,100.00
2018-08-10T23:52:45.396Z,100.00
2018-08-10T23:55:19.048Z,100.00
2018-08-10T23:57:49.320Z,100.00
